createdAt,value
2022-12-31T00:00:08.067Z,23.69
2022-12-31T00:00:38.127Z,23.69
2022-12-31T00:01:08.110Z,23.67
2022-12-31T00:01:38.220Z,23.70
2022-12-31T00:02:08.454Z,23.66
2022-12-31T00:02:38.417Z,23.69
2022-12-31T00:03:08.594Z,23.69
2022-12-31T00:03:38.538Z,23.69
2022-12-31T00:04:08.578Z,23.67
2022-12-31T00:04:38.692Z,23.69
2022-12-31T00:05:08.801Z,23.72
2022-12-31T00:05:38.910Z,23.69
2022-12-31T00:06:09.028Z,23.72
2022-12-31T00:06:39.135Z,23.70
2022-12-31T00:07:09.247Z,23.67
2022-12-31T00:08:15.459Z,23.66
2022-12-31T00:08:45.519Z,23.66
2022-12-31T00:09:15.590Z,23.67
2022-12-31T00:09:45.667Z,23.66
2022-12-31T00:10:15.736Z,23.66
2022-12-31T00:10:45.814Z,23.64
2022-12-31T00:11:15.894Z,23.66
2022-12-31T00:11:45.965Z,23.63
2022-12-31T00:12:16.053Z,23.64
2022-12-31T00:12:46.120Z,23.63
2022-12-31T00:13:16.200Z,23.63
2022-12-31T00:13:46.274Z,23.63
2022-12-31T00:14:16.349Z,23.62
2022-12-31T00:14:46.528Z,23.62
2022-12-31T00:15:16.445Z,23.60
2022-12-31T00:15:46.523Z,23.62
2022-12-31T00:16:16.594Z,23.62
2022-12-31T00:16:46.706Z,23.60
2022-12-31T00:17:16.669Z,23.59
2022-12-31T00:17:46.740Z,23.62
2022-12-31T00:18:16.859Z,23.62
2022-12-31T00:18:46.975Z,23.60
2022-12-31T00:19:17.082Z,23.62
2022-12-31T00:19:47.200Z,23.62
2022-12-31T00:20:17.316Z,23.60
2022-12-31T00:20:47.421Z,23.59
2022-12-31T00:21:17.545Z,23.60
2022-12-31T00:21:47.649Z,23.63
2022-12-31T00:22:17.771Z,23.63
2022-12-31T00:22:47.888Z,23.64
2022-12-31T00:23:17.992Z,23.63
2022-12-31T00:23:48.107Z,23.66
2022-12-31T00:24:18.243Z,23.64
2022-12-31T00:24:48.330Z,23.64
2022-12-31T00:25:18.447Z,23.66
2022-12-31T00:25:48.562Z,23.66
2022-12-31T00:26:18.672Z,23.67
2022-12-31T00:26:48.784Z,23.67
2022-12-31T00:27:18.897Z,23.69
2022-12-31T00:27:49.007Z,23.70
2022-12-31T00:28:19.127Z,23.69
2022-12-31T00:28:49.110Z,23.67
2022-12-31T00:29:19.226Z,23.66
2022-12-31T00:29:49.358Z,23.67
2022-12-31T00:30:19.453Z,23.69
2022-12-31T00:30:49.627Z,23.67
2022-12-31T00:31:19.698Z,23.69
2022-12-31T00:31:49.698Z,23.66
2022-12-31T00:32:19.808Z,23.67
2022-12-31T00:32:49.920Z,23.66
2022-12-31T00:33:20.042Z,23.69
2022-12-31T00:33:50.146Z,23.66
2022-12-31T00:34:20.260Z,23.64
2022-12-31T00:34:50.381Z,23.64
2022-12-31T00:35:20.496Z,23.66
2022-12-31T00:35:50.483Z,23.64
2022-12-31T00:36:20.592Z,23.64
2022-12-31T00:36:50.706Z,23.66
2022-12-31T00:37:20.818Z,23.66
2022-12-31T00:37:50.933Z,23.67
2022-12-31T00:38:21.057Z,23.66
2022-12-31T00:38:51.172Z,23.66
2022-12-31T00:39:21.289Z,23.66
2022-12-31T00:39:51.396Z,23.66
2022-12-31T00:40:21.511Z,23.66
2022-12-31T00:40:51.505Z,23.69
2022-12-31T00:41:21.620Z,23.66
2022-12-31T00:41:51.729Z,23.67
2022-12-31T00:42:21.845Z,23.67
2022-12-31T00:42:51.954Z,23.69
2022-12-31T00:43:22.087Z,23.69
2022-12-31T00:43:52.080Z,23.70
2022-12-31T00:44:22.184Z,23.69
2022-12-31T00:44:52.326Z,23.67
2022-12-31T00:45:22.403Z,23.66
2022-12-31T00:45:52.570Z,23.69
2022-12-31T00:46:22.582Z,23.69
2022-12-31T00:46:52.592Z,23.72
2022-12-31T00:47:22.703Z,23.70
2022-12-31T00:47:52.829Z,23.72
2022-12-31T00:48:22.820Z,23.70
2022-12-31T00:48:52.937Z,23.70
2022-12-31T00:49:23.047Z,23.69
2022-12-31T00:49:53.160Z,23.70
2022-12-31T00:50:23.265Z,23.70
2022-12-31T00:50:53.378Z,23.69
2022-12-31T00:51:23.506Z,23.69
2022-12-31T00:51:53.602Z,23.69
2022-12-31T00:52:23.717Z,23.69
2022-12-31T00:52:53.834Z,23.69
2022-12-31T00:53:23.828Z,23.67
2022-12-31T00:53:53.933Z,23.66
2022-12-31T00:54:24.027Z,23.67
2022-12-31T00:54:54.147Z,23.66
2022-12-31T00:55:24.280Z,23.64
2022-12-31T00:55:54.258Z,23.63
2022-12-31T00:56:24.379Z,23.66
2022-12-31T00:56:54.491Z,23.64
2022-12-31T00:57:24.597Z,23.62
2022-12-31T00:57:54.713Z,23.62
2022-12-31T00:58:24.823Z,23.60
2022-12-31T00:58:54.942Z,23.60
2022-12-31T00:59:25.048Z,23.62
2022-12-31T00:59:55.191Z,23.57
2022-12-31T01:00:25.280Z,23.59
2022-12-31T01:00:55.498Z,23.55
2022-12-31T01:01:25.594Z,23.56
2022-12-31T01:01:55.649Z,23.59
2022-12-31T01:02:25.752Z,23.56
2022-12-31T01:02:55.740Z,23.55
2022-12-31T01:03:25.831Z,23.55
2022-12-31T01:03:55.834Z,23.56
2022-12-31T01:04:25.922Z,23.56
2022-12-31T01:04:56.041Z,23.55
2022-12-31T01:05:26.151Z,23.57
2022-12-31T01:05:56.264Z,23.56
2022-12-31T01:06:26.258Z,23.57
2022-12-31T01:06:56.366Z,23.59
2022-12-31T01:07:26.477Z,23.57
2022-12-31T01:07:56.644Z,23.59
2022-12-31T01:08:26.592Z,23.59
2022-12-31T01:08:56.670Z,23.62
2022-12-31T01:09:26.731Z,23.62
2022-12-31T01:09:56.813Z,23.59
2022-12-31T01:10:26.880Z,23.59
2022-12-31T01:10:56.953Z,23.60
2022-12-31T01:11:27.059Z,23.60
2022-12-31T01:11:57.133Z,23.60
2022-12-31T01:12:27.207Z,23.60
2022-12-31T01:12:57.316Z,23.63
2022-12-31T01:13:27.385Z,23.63
2022-12-31T01:13:57.465Z,23.64
2022-12-31T01:14:27.533Z,23.63
2022-12-31T01:14:57.607Z,23.63
2022-12-31T01:15:27.789Z,23.62
2022-12-31T01:15:57.798Z,23.63
2022-12-31T01:16:27.781Z,23.64
2022-12-31T01:16:57.844Z,23.62
2022-12-31T01:17:27.919Z,23.62
2022-12-31T01:17:58.015Z,23.62
2022-12-31T01:18:28.162Z,23.59
2022-12-31T01:18:58.158Z,23.63
2022-12-31T01:19:28.256Z,23.60
2022-12-31T01:19:58.377Z,23.60
2022-12-31T01:20:28.482Z,23.62
2022-12-31T01:20:58.591Z,23.62
2022-12-31T01:21:28.705Z,23.59
2022-12-31T01:21:58.833Z,23.59
2022-12-31T01:22:28.929Z,23.57
2022-12-31T01:22:59.042Z,23.57
2022-12-31T01:23:29.181Z,23.59
2022-12-31T01:23:59.149Z,23.57
2022-12-31T01:24:29.261Z,23.57
2022-12-31T01:24:59.376Z,23.55
2022-12-31T01:25:29.374Z,23.55
2022-12-31T01:25:59.485Z,23.55
2022-12-31T01:26:29.598Z,23.56
2022-12-31T01:26:59.710Z,23.53
2022-12-31T01:27:29.832Z,23.55
2022-12-31T01:27:59.947Z,23.56
2022-12-31T01:28:30.056Z,23.53
2022-12-31T01:29:00.168Z,23.55
2022-12-31T01:29:30.281Z,23.56
2022-12-31T01:30:00.401Z,23.56
2022-12-31T01:30:30.531Z,23.55
2022-12-31T01:31:00.697Z,23.53
2022-12-31T01:31:30.755Z,23.53
2022-12-31T01:32:00.765Z,23.53
2022-12-31T01:32:30.876Z,23.55
2022-12-31T01:33:00.995Z,23.56
2022-12-31T01:33:31.113Z,23.55
2022-12-31T01:34:01.212Z,23.56
2022-12-31T01:34:31.334Z,23.56
2022-12-31T01:35:01.440Z,23.56
2022-12-31T01:35:31.556Z,23.56
2022-12-31T01:36:01.668Z,23.57
2022-12-31T01:36:31.779Z,23.57
2022-12-31T01:37:01.899Z,23.57
2022-12-31T01:37:32.011Z,23.57
2022-12-31T01:38:02.127Z,23.57
2022-12-31T01:38:32.243Z,23.59
2022-12-31T01:39:02.357Z,23.60
2022-12-31T01:39:32.471Z,23.59
2022-12-31T01:40:02.586Z,23.59
2022-12-31T01:40:32.692Z,23.59
2022-12-31T01:41:02.802Z,23.60
2022-12-31T01:41:32.911Z,23.60
2022-12-31T01:42:03.056Z,23.57
2022-12-31T01:42:33.035Z,23.57
2022-12-31T01:43:03.145Z,23.62
2022-12-31T01:43:33.260Z,23.60
2022-12-31T01:44:03.381Z,23.59
2022-12-31T01:44:33.484Z,23.59
2022-12-31T01:45:03.606Z,23.57
2022-12-31T01:45:33.728Z,23.59
2022-12-31T01:46:03.849Z,23.59
2022-12-31T01:46:33.873Z,23.59
2022-12-31T01:47:03.884Z,23.60
2022-12-31T01:47:33.874Z,23.57
2022-12-31T01:48:03.991Z,23.59
2022-12-31T01:48:34.089Z,23.56
2022-12-31T01:49:04.203Z,23.55
2022-12-31T01:49:34.339Z,23.57
2022-12-31T01:50:04.431Z,23.57
2022-12-31T01:50:34.541Z,23.56
2022-12-31T01:51:04.658Z,23.55
2022-12-31T01:51:34.781Z,23.53
2022-12-31T01:52:04.889Z,23.55
2022-12-31T01:52:35.017Z,23.55
2022-12-31T01:53:05.135Z,23.55
2022-12-31T01:53:37.275Z,23.55
2022-12-31T01:54:05.146Z,23.52
2022-12-31T01:54:35.243Z,23.55
2022-12-31T01:55:05.367Z,23.56
2022-12-31T01:55:35.471Z,23.56
2022-12-31T01:56:05.603Z,23.57
2022-12-31T01:56:35.698Z,23.52
2022-12-31T01:57:05.806Z,23.56
2022-12-31T01:57:35.919Z,23.56
2022-12-31T01:58:06.060Z,23.60
2022-12-31T01:58:36.047Z,23.60
2022-12-31T01:59:06.161Z,23.59
2022-12-31T01:59:36.272Z,23.62
2022-12-31T02:00:06.389Z,23.62
2022-12-31T02:00:36.526Z,23.62
2022-12-31T02:01:06.691Z,23.62
2022-12-31T02:01:36.786Z,23.62
2022-12-31T02:02:06.950Z,23.64
2022-12-31T02:02:37.047Z,23.63
2022-12-31T02:03:06.889Z,23.66
2022-12-31T02:03:36.875Z,23.63
2022-12-31T02:04:06.997Z,23.66
2022-12-31T02:04:37.102Z,23.67
2022-12-31T02:05:07.222Z,23.67
2022-12-31T02:05:37.330Z,23.64
2022-12-31T02:06:07.441Z,23.69
2022-12-31T02:06:37.461Z,23.69
2022-12-31T02:07:07.449Z,23.67
2022-12-31T02:07:37.559Z,23.69
2022-12-31T02:08:07.650Z,23.67
2022-12-31T02:08:41.937Z,23.66
2022-12-31T02:09:07.800Z,23.66
2022-12-31T02:09:37.868Z,23.67
2022-12-31T02:10:07.942Z,23.64
2022-12-31T02:10:38.026Z,23.66
2022-12-31T02:11:08.090Z,23.64
2022-12-31T02:11:38.205Z,23.66
2022-12-31T02:12:08.251Z,23.66
2022-12-31T02:12:38.328Z,23.64
2022-12-31T02:13:08.409Z,23.64
2022-12-31T02:13:38.478Z,23.66
2022-12-31T02:14:08.550Z,23.63
2022-12-31T02:14:38.632Z,23.63
2022-12-31T02:15:08.718Z,23.62
2022-12-31T02:15:38.850Z,23.62
2022-12-31T02:16:08.926Z,23.62
2022-12-31T02:16:38.892Z,23.62
2022-12-31T02:17:08.968Z,23.59
2022-12-31T02:17:39.034Z,23.59
2022-12-31T02:18:09.158Z,23.60
2022-12-31T02:18:39.143Z,23.59
2022-12-31T02:19:09.257Z,23.60
2022-12-31T02:19:39.372Z,23.57
2022-12-31T02:20:09.482Z,23.59
2022-12-31T02:20:39.594Z,23.57
2022-12-31T02:21:09.730Z,23.60
2022-12-31T02:21:39.749Z,23.62
2022-12-31T02:22:09.769Z,23.60
2022-12-31T02:22:39.884Z,23.60
2022-12-31T02:23:09.958Z,23.63
2022-12-31T02:23:40.036Z,23.62
2022-12-31T02:24:10.162Z,23.63
2022-12-31T02:24:40.277Z,23.64
2022-12-31T02:25:10.386Z,23.63
2022-12-31T02:25:40.493Z,23.64
2022-12-31T02:26:10.607Z,23.66
2022-12-31T02:26:40.717Z,23.63
2022-12-31T02:27:10.841Z,23.64
2022-12-31T02:27:40.937Z,23.64
2022-12-31T02:28:11.099Z,23.67
2022-12-31T02:28:41.105Z,23.67
2022-12-31T02:29:11.105Z,23.67
2022-12-31T02:29:41.204Z,23.69
2022-12-31T02:30:11.359Z,23.67
2022-12-31T02:30:41.360Z,23.67
2022-12-31T02:31:11.375Z,23.67
2022-12-31T02:31:41.420Z,23.67
2022-12-31T02:32:12.561Z,23.67
2022-12-31T02:32:41.512Z,23.67
2022-12-31T02:33:11.648Z,23.69
2022-12-31T02:33:41.622Z,23.70
2022-12-31T02:34:11.742Z,23.67
2022-12-31T02:34:41.851Z,23.67
2022-12-31T02:35:11.972Z,23.67
2022-12-31T02:35:41.970Z,23.69
2022-12-31T02:36:12.103Z,23.67
2022-12-31T02:36:42.075Z,23.66
2022-12-31T02:37:12.186Z,23.66
2022-12-31T02:37:42.297Z,23.67
2022-12-31T02:38:12.433Z,23.69
2022-12-31T02:38:42.421Z,23.69
2022-12-31T02:39:12.530Z,23.66
2022-12-31T02:39:42.644Z,23.66
2022-12-31T02:40:12.756Z,23.64
2022-12-31T02:40:42.865Z,23.63
2022-12-31T02:41:12.979Z,23.64
2022-12-31T02:41:43.113Z,23.64
2022-12-31T02:42:13.088Z,23.62
2022-12-31T02:42:43.207Z,23.63
2022-12-31T02:43:13.350Z,23.62
2022-12-31T02:43:43.323Z,23.63
2022-12-31T02:44:13.432Z,23.62
2022-12-31T02:44:43.547Z,23.60
2022-12-31T02:45:13.660Z,23.60
2022-12-31T02:45:43.797Z,23.57
2022-12-31T02:46:13.944Z,23.59
2022-12-31T02:46:43.980Z,23.56
2022-12-31T02:47:13.987Z,23.57
2022-12-31T02:47:43.969Z,23.56
2022-12-31T02:48:14.154Z,23.55
2022-12-31T02:48:44.134Z,23.56
2022-12-31T02:49:14.259Z,23.53
2022-12-31T02:49:44.356Z,23.53
2022-12-31T02:50:14.484Z,23.55
2022-12-31T02:50:44.573Z,23.53
2022-12-31T02:51:14.696Z,23.55
2022-12-31T02:51:44.806Z,23.55
2022-12-31T02:52:14.921Z,23.55
2022-12-31T02:52:45.033Z,23.53
2022-12-31T02:53:15.144Z,23.56
2022-12-31T02:53:45.261Z,23.55
2022-12-31T02:54:15.378Z,23.57
2022-12-31T02:54:45.483Z,23.56
2022-12-31T02:55:15.603Z,23.57
2022-12-31T02:55:45.713Z,23.57
2022-12-31T02:56:15.825Z,23.57
2022-12-31T02:56:45.947Z,23.57
2022-12-31T02:57:16.048Z,23.59
2022-12-31T02:57:46.159Z,23.60
2022-12-31T02:58:16.277Z,23.59
2022-12-31T02:58:46.388Z,23.60
2022-12-31T02:59:16.523Z,23.62
2022-12-31T02:59:46.621Z,23.62
2022-12-31T03:00:16.735Z,23.62
2022-12-31T03:00:46.879Z,23.63
2022-12-31T03:01:17.160Z,23.66
2022-12-31T03:01:47.171Z,23.63
2022-12-31T03:02:17.306Z,23.62
2022-12-31T03:02:47.162Z,23.67
2022-12-31T03:03:17.154Z,23.64
2022-12-31T03:03:47.260Z,23.64
2022-12-31T03:04:17.378Z,23.62
2022-12-31T03:04:47.499Z,23.66
2022-12-31T03:05:17.610Z,23.67
2022-12-31T03:05:47.725Z,23.63
2022-12-31T03:06:17.845Z,23.64
2022-12-31T03:06:47.970Z,23.64
2022-12-31T03:07:17.986Z,23.63
2022-12-31T03:07:48.082Z,23.64
2022-12-31T03:08:18.155Z,23.63
2022-12-31T03:08:48.236Z,23.63
2022-12-31T03:09:18.314Z,23.62
2022-12-31T03:09:48.398Z,23.62
2022-12-31T03:10:18.475Z,23.63
2022-12-31T03:10:48.550Z,23.62
2022-12-31T03:11:18.634Z,23.59
2022-12-31T03:11:48.712Z,23.57
2022-12-31T03:12:18.799Z,23.57
2022-12-31T03:12:49.045Z,23.57
2022-12-31T03:13:18.993Z,23.56
2022-12-31T03:13:49.061Z,23.59
2022-12-31T03:14:19.141Z,23.59
2022-12-31T03:14:49.228Z,23.57
2022-12-31T03:15:19.303Z,23.57
2022-12-31T03:15:49.525Z,23.56
2022-12-31T03:16:19.617Z,23.53
2022-12-31T03:16:49.554Z,23.56
2022-12-31T03:17:19.639Z,23.56
2022-12-31T03:17:49.724Z,23.56
2022-12-31T03:18:19.835Z,23.55
2022-12-31T03:18:49.949Z,23.55
2022-12-31T03:19:20.062Z,23.56
2022-12-31T03:19:50.174Z,23.55
2022-12-31T03:20:20.292Z,23.56
2022-12-31T03:20:50.412Z,23.56
2022-12-31T03:21:20.525Z,23.60
2022-12-31T03:21:50.642Z,23.59
2022-12-31T03:22:20.633Z,23.57
2022-12-31T03:22:50.756Z,23.60
2022-12-31T03:23:20.865Z,23.62
2022-12-31T03:23:50.982Z,23.60
2022-12-31T03:24:21.109Z,23.62
2022-12-31T03:24:51.228Z,23.64
2022-12-31T03:25:21.221Z,23.63
2022-12-31T03:25:51.333Z,23.62
2022-12-31T03:26:21.449Z,23.64
2022-12-31T03:26:51.573Z,23.64
2022-12-31T03:27:21.566Z,23.64
2022-12-31T03:27:51.681Z,23.66
2022-12-31T03:28:21.804Z,23.67
2022-12-31T03:28:51.793Z,23.64
2022-12-31T03:29:21.910Z,23.67
2022-12-31T03:29:52.021Z,23.63
2022-12-31T03:30:22.137Z,23.64
2022-12-31T03:30:52.250Z,23.67
2022-12-31T03:31:22.447Z,23.64
2022-12-31T03:31:52.498Z,23.66
2022-12-31T03:32:22.434Z,23.64
2022-12-31T03:32:52.552Z,23.66
2022-12-31T03:33:22.693Z,23.66
2022-12-31T03:33:52.669Z,23.69
2022-12-31T03:34:22.790Z,23.66
2022-12-31T03:34:52.899Z,23.64
2022-12-31T03:35:22.907Z,23.64
2022-12-31T03:35:53.035Z,23.64
2022-12-31T03:36:23.148Z,23.63
2022-12-31T03:36:53.139Z,23.64
2022-12-31T03:37:23.161Z,23.64
2022-12-31T03:37:53.276Z,23.62
2022-12-31T03:38:23.280Z,23.63
2022-12-31T03:38:53.266Z,23.62
2022-12-31T03:39:23.384Z,23.63
2022-12-31T03:39:53.500Z,23.62
2022-12-31T03:40:23.608Z,23.60
2022-12-31T03:40:53.724Z,23.60
2022-12-31T03:41:23.839Z,23.59
2022-12-31T03:41:53.960Z,23.57
2022-12-31T03:42:24.067Z,23.60
2022-12-31T03:42:54.182Z,23.59
2022-12-31T03:43:24.310Z,23.60
2022-12-31T03:43:54.415Z,23.59
2022-12-31T03:44:24.533Z,23.60
2022-12-31T03:44:54.647Z,23.57
2022-12-31T03:45:24.759Z,23.56
2022-12-31T03:45:54.956Z,23.59
2022-12-31T03:46:24.984Z,23.55
2022-12-31T03:46:54.966Z,23.57
2022-12-31T03:47:25.081Z,23.57
2022-12-31T03:47:55.212Z,23.56
2022-12-31T03:48:25.235Z,23.59
2022-12-31T03:48:55.207Z,23.56
2022-12-31T03:49:25.321Z,23.57
2022-12-31T03:49:55.438Z,23.57
2022-12-31T03:50:25.551Z,23.57
2022-12-31T03:50:55.679Z,23.57
2022-12-31T03:51:25.790Z,23.60
2022-12-31T03:51:55.917Z,23.60
2022-12-31T03:52:26.072Z,23.62
2022-12-31T03:52:56.043Z,23.62
2022-12-31T03:53:26.153Z,23.62
2022-12-31T03:53:56.145Z,23.64
2022-12-31T03:54:26.256Z,23.67
2022-12-31T03:54:56.380Z,23.64
2022-12-31T03:55:26.498Z,23.63
2022-12-31T03:55:56.601Z,23.66
2022-12-31T03:56:26.710Z,23.66
2022-12-31T03:57:00.282Z,23.64
2022-12-31T03:57:26.930Z,23.64
2022-12-31T03:57:57.067Z,23.66
2022-12-31T03:58:27.185Z,23.63
2022-12-31T03:58:57.173Z,23.64
2022-12-31T03:59:27.297Z,23.67
2022-12-31T03:59:57.401Z,23.67
2022-12-31T04:00:27.520Z,23.66
2022-12-31T04:00:57.769Z,23.64
2022-12-31T04:01:27.768Z,23.63
2022-12-31T04:01:57.854Z,23.64
2022-12-31T04:02:29.186Z,23.63
2022-12-31T04:02:57.863Z,23.64
2022-12-31T04:03:27.845Z,23.63
2022-12-31T04:03:57.839Z,23.64
2022-12-31T04:04:27.949Z,23.62
2022-12-31T04:04:58.062Z,23.62
2022-12-31T04:05:28.176Z,23.60
2022-12-31T04:05:58.288Z,23.60
2022-12-31T04:06:28.406Z,23.60
2022-12-31T04:06:58.533Z,23.59
2022-12-31T04:07:28.656Z,23.57
2022-12-31T04:07:58.748Z,23.59
2022-12-31T04:08:28.832Z,23.57
2022-12-31T04:08:58.912Z,23.57
2022-12-31T04:09:28.986Z,23.56
2022-12-31T04:09:59.071Z,23.57
2022-12-31T04:10:29.155Z,23.57
2022-12-31T04:10:59.244Z,23.60
2022-12-31T04:11:29.309Z,23.57
2022-12-31T04:11:59.386Z,23.57
2022-12-31T04:12:29.474Z,23.57
2022-12-31T04:12:59.550Z,23.59
2022-12-31T04:13:29.634Z,23.59
2022-12-31T04:13:59.707Z,23.60
2022-12-31T04:14:29.801Z,23.59
2022-12-31T04:14:59.885Z,23.60
2022-12-31T04:15:29.956Z,23.62
2022-12-31T04:16:00.116Z,23.59
2022-12-31T04:16:30.133Z,23.62
2022-12-31T04:17:00.186Z,23.62
2022-12-31T04:17:30.272Z,23.62
2022-12-31T04:18:00.371Z,23.59
2022-12-31T04:18:30.375Z,23.62
2022-12-31T04:19:00.361Z,23.63
2022-12-31T04:19:30.480Z,23.63
2022-12-31T04:20:00.591Z,23.63
2022-12-31T04:20:30.713Z,23.63
2022-12-31T04:21:00.826Z,23.63
2022-12-31T04:21:34.987Z,23.62
2022-12-31T04:22:01.032Z,23.63
2022-12-31T04:22:31.148Z,23.62
2022-12-31T04:23:01.261Z,23.62
2022-12-31T04:23:31.387Z,23.63
2022-12-31T04:24:01.373Z,23.63
2022-12-31T04:24:31.486Z,23.60
2022-12-31T04:25:01.605Z,23.62
2022-12-31T04:25:31.727Z,23.63
2022-12-31T04:26:01.836Z,23.62
2022-12-31T04:26:31.839Z,23.63
2022-12-31T04:27:07.268Z,23.60
2022-12-31T04:27:31.862Z,23.62
2022-12-31T04:28:01.975Z,23.60
2022-12-31T04:28:32.082Z,23.57
2022-12-31T04:29:02.071Z,23.59
2022-12-31T04:29:32.187Z,23.57
2022-12-31T04:30:02.301Z,23.57
2022-12-31T04:30:32.413Z,23.57
2022-12-31T04:31:02.525Z,23.55
2022-12-31T04:31:32.690Z,23.56
2022-12-31T04:32:02.739Z,23.56
2022-12-31T04:32:32.721Z,23.56
2022-12-31T04:33:02.728Z,23.55
2022-12-31T04:33:32.841Z,23.53
2022-12-31T04:34:02.960Z,23.55
2022-12-31T04:34:33.073Z,23.52
2022-12-31T04:35:03.203Z,23.53
2022-12-31T04:35:33.187Z,23.56
2022-12-31T04:36:03.303Z,23.53
2022-12-31T04:36:33.416Z,23.55
2022-12-31T04:37:03.547Z,23.53
2022-12-31T04:37:33.668Z,23.53
2022-12-31T04:38:03.657Z,23.53
2022-12-31T04:38:33.760Z,23.55
2022-12-31T04:39:03.886Z,23.55
2022-12-31T04:39:33.985Z,23.55
2022-12-31T04:40:06.579Z,23.56
2022-12-31T04:40:34.170Z,23.56
2022-12-31T04:41:04.291Z,23.56
2022-12-31T04:41:34.399Z,23.55
2022-12-31T04:42:04.541Z,23.56
2022-12-31T04:42:34.538Z,23.57
2022-12-31T04:43:04.514Z,23.57
2022-12-31T04:43:34.504Z,23.57
2022-12-31T04:44:04.616Z,23.59
2022-12-31T04:44:34.744Z,23.59
2022-12-31T04:45:04.862Z,23.60
2022-12-31T04:45:34.915Z,23.59
2022-12-31T04:46:04.975Z,23.60
2022-12-31T04:46:34.995Z,23.60
2022-12-31T04:47:05.013Z,23.60
2022-12-31T04:47:34.980Z,23.60
2022-12-31T04:48:05.097Z,23.63
2022-12-31T04:48:35.218Z,23.63
2022-12-31T04:49:05.332Z,23.63
2022-12-31T04:49:35.346Z,23.63
2022-12-31T04:50:05.338Z,23.63
2022-12-31T04:50:35.447Z,23.63
2022-12-31T04:51:05.569Z,23.63
2022-12-31T04:51:35.677Z,23.62
2022-12-31T04:52:05.806Z,23.63
2022-12-31T04:52:42.309Z,23.64
2022-12-31T04:53:05.836Z,23.62
2022-12-31T04:53:35.825Z,23.62
2022-12-31T04:54:05.955Z,23.63
2022-12-31T04:54:36.056Z,23.62
2022-12-31T04:55:06.171Z,23.62
2022-12-31T04:55:36.288Z,23.62
2022-12-31T04:56:06.396Z,23.60
2022-12-31T04:56:36.575Z,23.62
2022-12-31T04:57:06.659Z,23.62
2022-12-31T04:57:36.631Z,23.62
2022-12-31T04:58:06.747Z,23.59
2022-12-31T04:58:36.740Z,23.57
2022-12-31T04:59:06.871Z,23.60
2022-12-31T04:59:36.866Z,23.59
2022-12-31T05:00:06.983Z,23.59
2022-12-31T05:00:37.093Z,23.62
2022-12-31T05:01:07.420Z,23.59
2022-12-31T05:01:37.453Z,23.59
2022-12-31T05:02:07.588Z,23.60
2022-12-31T05:02:37.711Z,23.59
2022-12-31T05:03:07.580Z,23.60
2022-12-31T05:03:37.534Z,23.59
2022-12-31T05:04:07.647Z,23.60
2022-12-31T05:04:37.764Z,23.62
2022-12-31T05:05:07.882Z,23.62
2022-12-31T05:05:37.995Z,23.63
2022-12-31T05:06:07.988Z,23.64
2022-12-31T05:06:38.113Z,23.63
2022-12-31T05:07:08.106Z,23.64
2022-12-31T05:07:38.231Z,23.63
2022-12-31T05:08:08.302Z,23.66
2022-12-31T05:08:38.376Z,23.66
2022-12-31T05:09:08.459Z,23.67
2022-12-31T05:09:38.527Z,23.69
2022-12-31T05:10:08.611Z,23.66
2022-12-31T05:10:38.681Z,23.69
2022-12-31T05:11:08.760Z,23.69
2022-12-31T05:11:38.879Z,23.67
2022-12-31T05:12:08.969Z,23.67
2022-12-31T05:12:39.030Z,23.66
2022-12-31T05:13:09.138Z,23.70
2022-12-31T05:13:39.213Z,23.69
2022-12-31T05:14:09.286Z,23.69
2022-12-31T05:14:39.364Z,23.66
2022-12-31T05:15:09.451Z,23.69
2022-12-31T05:15:39.519Z,23.69
2022-12-31T05:16:09.588Z,23.69
2022-12-31T05:16:39.742Z,23.67
2022-12-31T05:17:09.710Z,23.67
2022-12-31T05:17:39.803Z,23.64
2022-12-31T05:18:09.777Z,23.66
2022-12-31T05:18:39.769Z,23.67
2022-12-31T05:19:09.897Z,23.66
2022-12-31T05:19:40.006Z,23.64
2022-12-31T05:20:10.115Z,23.66
2022-12-31T05:20:40.232Z,23.63
2022-12-31T05:21:10.351Z,23.64
2022-12-31T05:21:40.475Z,23.63
2022-12-31T05:22:10.585Z,23.63
2022-12-31T05:22:40.699Z,23.62
2022-12-31T05:23:10.832Z,23.62
2022-12-31T05:23:40.820Z,23.63
2022-12-31T05:24:10.937Z,23.62
2022-12-31T05:24:41.054Z,23.60
2022-12-31T05:25:11.050Z,23.62
2022-12-31T05:25:41.051Z,23.57
2022-12-31T05:26:11.048Z,23.59
2022-12-31T05:26:41.168Z,23.57
2022-12-31T05:27:11.279Z,23.56
2022-12-31T05:27:41.287Z,23.56
2022-12-31T05:28:11.424Z,23.56
2022-12-31T05:28:41.416Z,23.55
2022-12-31T05:29:11.529Z,23.53
2022-12-31T05:29:41.643Z,23.53
2022-12-31T05:30:11.776Z,23.53
2022-12-31T05:30:41.912Z,23.55
2022-12-31T05:31:12.038Z,23.53
2022-12-31T05:31:41.908Z,23.52
2022-12-31T05:32:12.047Z,23.52
2022-12-31T05:32:42.138Z,23.53
2022-12-31T05:33:12.137Z,23.52
2022-12-31T05:33:42.252Z,23.52
2022-12-31T05:34:12.371Z,23.52
2022-12-31T05:34:42.479Z,23.52
2022-12-31T05:35:12.599Z,23.53
2022-12-31T05:35:42.715Z,23.52
2022-12-31T05:36:12.825Z,23.55
2022-12-31T05:36:42.947Z,23.53
2022-12-31T05:37:13.072Z,23.52
2022-12-31T05:37:43.177Z,23.55
2022-12-31T05:38:13.289Z,23.55
2022-12-31T05:38:43.412Z,23.57
2022-12-31T05:39:13.408Z,23.57
2022-12-31T05:39:43.530Z,23.57
2022-12-31T05:40:13.633Z,23.57
2022-12-31T05:40:43.763Z,23.56
2022-12-31T05:41:13.764Z,23.60
2022-12-31T05:41:43.870Z,23.59
2022-12-31T05:42:13.991Z,23.60
2022-12-31T05:42:44.096Z,23.60
2022-12-31T05:43:14.210Z,23.63
2022-12-31T05:43:44.321Z,23.64
2022-12-31T05:44:14.433Z,23.62
2022-12-31T05:44:44.570Z,23.60
2022-12-31T05:45:14.671Z,23.62
2022-12-31T05:45:44.810Z,23.63
2022-12-31T05:46:14.808Z,23.60
2022-12-31T05:46:44.906Z,23.62
2022-12-31T05:47:15.057Z,23.62
2022-12-31T05:47:45.141Z,23.62
2022-12-31T05:48:15.139Z,23.64
2022-12-31T05:48:45.260Z,23.60
2022-12-31T05:49:15.381Z,23.63
2022-12-31T05:49:45.492Z,23.60
2022-12-31T05:50:15.600Z,23.63
2022-12-31T05:50:45.724Z,23.63
2022-12-31T05:51:15.717Z,23.62
2022-12-31T05:51:45.833Z,23.62
2022-12-31T05:52:15.964Z,23.60
2022-12-31T05:52:47.823Z,23.62
2022-12-31T05:53:16.130Z,23.59
2022-12-31T05:53:46.120Z,23.60
2022-12-31T05:54:16.237Z,23.59
2022-12-31T05:54:46.249Z,23.57
2022-12-31T05:55:16.352Z,23.60
2022-12-31T05:55:46.475Z,23.60
2022-12-31T05:56:16.587Z,23.56
2022-12-31T05:56:46.699Z,23.57
2022-12-31T05:57:16.691Z,23.56
2022-12-31T05:57:46.815Z,23.57
2022-12-31T05:58:16.864Z,23.57
2022-12-31T05:58:46.854Z,23.59
2022-12-31T05:59:16.964Z,23.56
2022-12-31T05:59:47.083Z,23.56
2022-12-31T06:00:17.205Z,23.59
2022-12-31T06:00:47.311Z,23.57
2022-12-31T06:01:17.465Z,23.59
2022-12-31T06:01:47.434Z,23.59
2022-12-31T06:02:17.669Z,23.59
2022-12-31T06:02:47.737Z,23.60
2022-12-31T06:03:17.861Z,23.56
2022-12-31T06:03:47.827Z,23.62
2022-12-31T06:04:17.841Z,23.59
2022-12-31T06:04:47.989Z,23.60
2022-12-31T06:05:24.145Z,23.62
2022-12-31T06:05:47.978Z,23.62
2022-12-31T06:06:18.089Z,23.62
2022-12-31T06:06:48.203Z,23.63
2022-12-31T06:07:18.349Z,23.62
2022-12-31T06:07:48.334Z,23.60
2022-12-31T06:08:18.407Z,23.63
2022-12-31T06:08:48.486Z,23.64
2022-12-31T06:09:18.668Z,23.62
2022-12-31T06:09:48.602Z,23.63
2022-12-31T06:10:18.678Z,23.64
2022-12-31T06:10:48.767Z,23.64
2022-12-31T06:11:18.843Z,23.66
2022-12-31T06:11:48.916Z,23.63
2022-12-31T06:12:19.007Z,23.64
2022-12-31T06:12:49.094Z,23.62
2022-12-31T06:13:19.169Z,23.62
2022-12-31T06:13:49.260Z,23.62
2022-12-31T06:14:19.328Z,23.63
2022-12-31T06:14:49.410Z,23.63
2022-12-31T06:15:19.492Z,23.62
2022-12-31T06:15:49.680Z,23.59
2022-12-31T06:16:19.674Z,23.63
2022-12-31T06:16:49.731Z,23.59
2022-12-31T06:17:19.834Z,23.60
2022-12-31T06:17:49.962Z,23.60
2022-12-31T06:18:19.924Z,23.62
2022-12-31T06:18:50.040Z,23.59
2022-12-31T06:19:20.037Z,23.60
2022-12-31T06:19:50.155Z,23.57
2022-12-31T06:20:20.265Z,23.57
2022-12-31T06:20:50.396Z,23.56
2022-12-31T06:21:20.502Z,23.56
2022-12-31T06:21:50.615Z,23.56
2022-12-31T06:22:20.753Z,23.56
2022-12-31T06:22:50.742Z,23.56
2022-12-31T06:23:20.870Z,23.56
2022-12-31T06:23:50.857Z,23.55
2022-12-31T06:24:20.977Z,23.53
2022-12-31T06:24:51.090Z,23.53
2022-12-31T06:25:21.205Z,23.52
2022-12-31T06:25:51.322Z,23.49
2022-12-31T06:26:21.311Z,23.50
2022-12-31T06:26:51.428Z,23.50
2022-12-31T06:27:21.421Z,23.48
2022-12-31T06:27:51.544Z,23.49